createdAt,value
2022-08-25T00:00:17.452Z,26.95
2022-08-25T00:02:55.589Z,26.94
2022-08-25T00:05:23.458Z,26.94
2022-08-25T00:08:00.267Z,26.93
2022-08-25T00:10:33.418Z,26.93
2022-08-25T00:13:06.474Z,26.92
2022-08-25T00:15:39.500Z,26.92
2022-08-25T00:18:19.886Z,26.91
2022-08-25T00:20:49.069Z,26.91
2022-08-25T00:23:18.397Z,26.90
2022-08-25T00:25:51.410Z,26.90
2022-08-25T00:28:24.396Z,26.89
2022-08-25T00:30:57.461Z,26.89
2022-08-25T00:33:30.486Z,26.88
2022-08-25T00:36:03.416Z,26.88
2022-08-25T00:38:36.481Z,26.87
2022-08-25T00:41:09.496Z,26.86
2022-08-25T00:43:42.473Z,26.86
2022-08-25T00:46:15.646Z,26.86
2022-08-25T00:48:48.449Z,26.85
2022-08-25T00:51:21.521Z,26.85
2022-08-25T00:53:54.256Z,26.85
2022-08-25T00:56:28.528Z,26.85
2022-08-25T00:59:01.452Z,26.84
2022-08-25T01:01:34.572Z,26.84
2022-08-25T01:04:07.527Z,26.83
2022-08-25T01:06:40.544Z,26.83
2022-08-25T01:09:13.578Z,26.83
2022-08-25T01:11:46.531Z,26.82
2022-08-25T01:14:19.558Z,26.82
2022-08-25T01:16:53.950Z,26.82
2022-08-25T01:19:25.480Z,26.81
2022-08-25T01:21:58.516Z,26.81
2022-08-25T01:24:31.257Z,26.81
2022-08-25T01:27:04.558Z,26.80
2022-08-25T01:29:37.590Z,26.80
2022-08-25T01:32:10.572Z,26.79
2022-08-25T01:34:43.551Z,26.79
2022-08-25T01:37:16.558Z,26.78
2022-08-25T01:39:49.662Z,26.78
2022-08-25T01:42:22.532Z,26.77
2022-08-25T01:44:55.604Z,26.76
2022-08-25T01:47:28.517Z,26.76
2022-08-25T01:50:01.645Z,26.76
2022-08-25T01:52:34.533Z,26.75
2022-08-25T01:55:07.657Z,26.75
2022-08-25T01:57:40.577Z,26.74
2022-08-25T02:00:13.593Z,26.74
2022-08-25T02:02:46.599Z,26.73
2022-08-25T02:05:23.307Z,26.73
2022-08-25T02:07:52.580Z,26.72
2022-08-25T02:10:25.621Z,26.72
2022-08-25T02:12:58.624Z,26.72
2022-08-25T02:15:31.683Z,26.71
2022-08-25T02:18:04.802Z,26.71
2022-08-25T02:20:37.424Z,26.71
2022-08-25T02:23:10.613Z,26.70
2022-08-25T02:25:43.557Z,26.70
2022-08-25T02:28:16.521Z,26.69
2022-08-25T02:30:49.683Z,26.69
2022-08-25T02:33:22.669Z,26.69
2022-08-25T02:35:55.671Z,26.68
2022-08-25T02:38:28.663Z,26.68
2022-08-25T02:41:01.603Z,26.68
2022-08-25T02:43:34.662Z,26.67
2022-08-25T02:46:07.804Z,26.67
2022-08-25T02:48:40.736Z,26.66
2022-08-25T02:51:13.595Z,26.66
2022-08-25T02:53:46.690Z,26.65
2022-08-25T02:56:19.676Z,26.65
2022-08-25T02:58:52.633Z,26.65
2022-08-25T03:01:28.578Z,26.64
2022-08-25T03:03:58.699Z,26.64
2022-08-25T03:06:31.724Z,26.63
2022-08-25T03:09:04.708Z,26.62
2022-08-25T03:11:37.701Z,26.62
2022-08-25T03:14:10.720Z,26.61
2022-08-25T03:16:43.728Z,26.60
2022-08-25T03:19:16.765Z,26.60
2022-08-25T03:21:49.720Z,26.59
2022-08-25T03:24:22.646Z,26.59
2022-08-25T03:26:55.729Z,26.58
2022-08-25T03:29:28.685Z,26.57
2022-08-25T03:32:01.874Z,26.57
2022-08-25T03:34:34.755Z,26.56
2022-08-25T03:37:07.689Z,26.55
2022-08-25T03:39:40.759Z,26.54
2022-08-25T03:42:13.738Z,26.53
2022-08-25T03:44:46.730Z,26.52
2022-08-25T03:47:19.672Z,26.52
2022-08-25T03:49:52.706Z,26.51
2022-08-25T03:52:25.768Z,26.50
2022-08-25T03:54:58.769Z,26.49
2022-08-25T03:57:31.725Z,26.48
2022-08-25T04:00:04.533Z,26.47
2022-08-25T04:02:37.847Z,26.47
2022-08-25T04:05:10.805Z,26.46
2022-08-25T04:07:43.732Z,26.45
2022-08-25T04:10:16.780Z,26.44
2022-08-25T04:12:49.821Z,26.44
2022-08-25T04:15:22.759Z,26.43
2022-08-25T04:17:55.739Z,26.43
2022-08-25T04:20:28.789Z,26.42
2022-08-25T04:23:01.775Z,26.42
2022-08-25T04:25:34.585Z,26.41
2022-08-25T04:28:07.745Z,26.42
2022-08-25T04:30:40.609Z,26.42
2022-08-25T04:33:13.652Z,26.43
2022-08-25T04:35:46.472Z,26.44
2022-08-25T04:38:19.839Z,26.45
2022-08-25T04:40:52.605Z,26.45
2022-08-25T04:43:25.523Z,26.46
2022-08-25T04:45:58.946Z,26.47
2022-08-25T04:48:31.943Z,26.48
2022-08-25T04:51:05.868Z,26.49
2022-08-25T04:53:38.538Z,26.49
2022-08-25T04:56:11.833Z,26.50
2022-08-25T04:58:44.904Z,26.50
2022-08-25T05:01:17.944Z,26.50
2022-08-25T05:03:50.850Z,26.50
2022-08-25T05:06:23.857Z,26.50
2022-08-25T05:08:56.791Z,26.50
2022-08-25T05:11:29.925Z,26.49
2022-08-25T05:14:02.793Z,26.48
2022-08-25T05:16:35.888Z,26.48
2022-08-25T05:19:08.839Z,26.47
2022-08-25T05:21:41.838Z,26.46
2022-08-25T05:24:17.522Z,26.45
2022-08-25T05:26:50.863Z,26.44
2022-08-25T05:29:23.897Z,26.44
2022-08-25T05:31:56.965Z,26.43
2022-08-25T05:34:29.934Z,26.42
2022-08-25T05:37:02.870Z,26.42
2022-08-25T05:39:35.564Z,26.41
2022-08-25T05:42:08.559Z,26.41
2022-08-25T05:44:41.875Z,26.40
2022-08-25T05:47:14.919Z,26.40
2022-08-25T05:49:47.832Z,26.40
2022-08-25T05:52:20.944Z,26.40
2022-08-25T05:54:53.887Z,26.39
2022-08-25T05:57:26.774Z,26.39
2022-08-25T05:59:59.932Z,26.39
2022-08-25T06:02:32.818Z,26.39
2022-08-25T06:05:05.828Z,26.39
2022-08-25T06:07:38.925Z,26.39
2022-08-25T06:10:11.938Z,26.39
2022-08-25T06:12:44.732Z,26.39
2022-08-25T06:15:17.606Z,26.40
2022-08-25T06:17:50.800Z,26.40
2022-08-25T06:20:25.375Z,26.40
2022-08-25T06:22:57.035Z,26.40
2022-08-25T06:25:29.614Z,26.40
2022-08-25T06:28:02.958Z,26.41
2022-08-25T06:30:35.633Z,26.41
2022-08-25T06:33:08.642Z,26.42
2022-08-25T06:35:41.662Z,26.42
2022-08-25T06:38:14.801Z,26.43
2022-08-25T06:40:47.862Z,26.43
2022-08-25T06:43:20.673Z,26.44
2022-08-25T06:45:53.735Z,26.44
2022-08-25T06:48:26.789Z,26.45
2022-08-25T06:50:59.773Z,26.46
2022-08-25T06:53:32.665Z,26.47
2022-08-25T06:56:06.763Z,26.48
2022-08-25T06:58:38.696Z,26.48
2022-08-25T07:01:15.935Z,26.49
2022-08-25T07:03:44.845Z,26.51
2022-08-25T07:06:18.622Z,26.52
2022-08-25T07:08:50.842Z,26.53
2022-08-25T07:11:23.698Z,26.54
2022-08-25T07:13:56.766Z,26.55
2022-08-25T07:16:31.087Z,26.56
2022-08-25T07:19:02.715Z,26.56
2022-08-25T07:21:35.967Z,26.57
2022-08-25T07:24:08.703Z,26.58
2022-08-25T07:26:41.710Z,26.58
2022-08-25T07:29:18.548Z,26.59
2022-08-25T07:31:51.959Z,26.60
2022-08-25T07:34:25.498Z,26.61
2022-08-25T07:36:57.876Z,26.62
2022-08-25T07:39:30.864Z,26.62
2022-08-25T07:42:03.751Z,26.63
2022-08-25T07:44:36.735Z,26.64
2022-08-25T07:47:09.758Z,26.65
2022-08-25T07:49:42.772Z,26.66
2022-08-25T07:52:15.815Z,26.67
2022-08-25T07:54:48.807Z,26.68
2022-08-25T07:57:21.767Z,26.69
2022-08-25T07:59:54.905Z,26.70
2022-08-25T08:02:27.995Z,26.71
2022-08-25T08:05:00.927Z,26.72
2022-08-25T08:07:43.838Z,26.73
2022-08-25T08:10:37.054Z,26.74
2022-08-25T08:12:39.802Z,26.75
2022-08-25T08:15:12.808Z,26.75
2022-08-25T08:17:45.923Z,26.76
2022-08-25T08:20:23.305Z,26.77
2022-08-25T08:22:51.858Z,26.78
2022-08-25T08:25:27.176Z,26.79
2022-08-25T08:27:58.105Z,26.80
2022-08-25T08:30:30.800Z,26.80
2022-08-25T08:33:11.310Z,26.81
2022-08-25T08:35:36.825Z,26.81
2022-08-25T08:38:14.887Z,26.82
2022-08-25T08:40:42.827Z,26.82
2022-08-25T08:43:18.319Z,26.83
2022-08-25T08:45:49.114Z,26.84
2022-08-25T08:48:21.881Z,26.85
2022-08-25T08:50:55.040Z,26.85
2022-08-25T08:53:27.940Z,26.86
2022-08-25T08:56:00.870Z,26.87
2022-08-25T08:58:33.848Z,26.88
2022-08-25T09:01:06.863Z,26.89
2022-08-25T09:03:40.020Z,26.89
2022-08-25T09:06:12.851Z,26.90
2022-08-25T09:08:46.025Z,26.91
2022-08-25T09:11:19.033Z,26.92
2022-08-25T09:13:51.889Z,26.92
2022-08-25T09:16:34.122Z,26.93
2022-08-25T09:18:58.374Z,26.94
2022-08-25T09:21:31.861Z,26.95
2022-08-25T09:24:05.041Z,26.96
2022-08-25T09:26:37.871Z,26.97
2022-08-25T09:29:16.571Z,26.97
2022-08-25T09:31:45.175Z,26.98
2022-08-25T09:34:17.890Z,26.98
2022-08-25T09:36:50.891Z,26.99
2022-08-25T09:39:23.911Z,26.99
2022-08-25T09:41:57.065Z,27.00
2022-08-25T09:44:30.321Z,27.01
2022-08-25T09:47:02.915Z,27.01
2022-08-25T09:49:35.921Z,27.02
2022-08-25T09:52:09.261Z,27.02
2022-08-25T09:54:47.002Z,27.03
2022-08-25T09:57:16.080Z,27.03
2022-08-25T09:59:57.614Z,27.04
2022-08-25T10:02:28.261Z,27.05
2022-08-25T10:05:00.972Z,27.05
2022-08-25T10:07:33.932Z,27.05
2022-08-25T10:10:07.066Z,27.05
2022-08-25T10:12:42.357Z,27.05
2022-08-25T10:15:12.992Z,27.06
2022-08-25T10:17:46.309Z,27.05
2022-08-25T10:20:19.219Z,27.05
2022-08-25T10:22:51.993Z,27.05
2022-08-25T10:25:24.971Z,27.05
2022-08-25T10:27:58.144Z,27.06
2022-08-25T10:30:30.996Z,27.06
2022-08-25T10:33:04.108Z,27.06
2022-08-25T10:35:37.011Z,27.06
2022-08-25T10:38:10.017Z,27.06
2022-08-25T10:40:43.006Z,27.07
2022-08-25T10:43:16.044Z,27.07
2022-08-25T10:45:49.166Z,27.07
2022-08-25T10:48:22.307Z,27.08
2022-08-25T10:50:55.109Z,27.08
2022-08-25T10:53:28.298Z,27.09
2022-08-25T10:56:01.351Z,27.09
2022-08-25T10:58:34.328Z,27.10
2022-08-25T11:01:07.370Z,27.10
2022-08-25T11:03:40.017Z,27.11
2022-08-25T11:06:13.019Z,27.12
2022-08-25T11:08:46.184Z,27.12
2022-08-25T11:11:19.022Z,27.13
2022-08-25T11:13:52.211Z,27.14
2022-08-25T11:16:25.061Z,27.14
2022-08-25T11:18:58.041Z,27.15
2022-08-25T11:21:31.210Z,27.15
2022-08-25T11:24:04.091Z,27.16
2022-08-25T11:26:37.448Z,27.16
2022-08-25T11:29:12.067Z,27.17
2022-08-25T11:31:43.092Z,27.18
2022-08-25T11:34:16.205Z,27.19
2022-08-25T11:36:49.086Z,27.20
2022-08-25T11:39:22.091Z,27.22
2022-08-25T11:41:55.334Z,27.24
2022-08-25T11:44:28.396Z,27.25
2022-08-25T11:47:01.370Z,27.27
2022-08-25T11:49:34.111Z,27.28
2022-08-25T11:52:07.093Z,27.29
2022-08-25T11:54:41.711Z,27.31
2022-08-25T11:57:13.199Z,27.32
2022-08-25T11:59:46.262Z,27.33
2022-08-25T12:02:19.084Z,27.34
2022-08-25T12:04:53.091Z,27.35
2022-08-25T12:07:25.092Z,27.36
2022-08-25T12:09:58.123Z,27.37
2022-08-25T12:12:31.354Z,27.38
2022-08-25T12:15:04.146Z,27.39
2022-08-25T12:17:37.312Z,27.40
2022-08-25T12:20:10.383Z,27.41
2022-08-25T12:22:43.377Z,27.42
2022-08-25T12:25:16.253Z,27.43
2022-08-25T12:27:49.239Z,27.44
2022-08-25T12:30:22.435Z,27.45
2022-08-25T12:32:55.477Z,27.46
2022-08-25T12:35:29.539Z,27.47
2022-08-25T12:38:01.477Z,27.48
2022-08-25T12:40:34.180Z,27.49
2022-08-25T12:43:07.319Z,27.50
2022-08-25T12:45:40.476Z,27.50
2022-08-25T12:48:13.457Z,27.51
2022-08-25T12:50:46.499Z,27.52
2022-08-25T12:53:19.456Z,27.53
2022-08-25T12:55:52.533Z,27.54
2022-08-25T12:58:31.191Z,27.55
2022-08-25T13:01:00.955Z,27.56
2022-08-25T13:03:31.594Z,27.57
2022-08-25T13:06:04.214Z,27.57
2022-08-25T13:08:37.186Z,27.58
2022-08-25T13:11:10.197Z,27.59
2022-08-25T13:13:43.309Z,27.60
2022-08-25T13:16:16.297Z,27.61
2022-08-25T13:18:51.640Z,27.62
2022-08-25T13:21:22.475Z,27.63
2022-08-25T13:24:04.849Z,27.63
2022-08-25T13:26:28.577Z,27.64
2022-08-25T13:29:02.065Z,27.66
2022-08-25T13:31:34.576Z,27.67
2022-08-25T13:34:07.514Z,27.68
2022-08-25T13:36:43.456Z,27.69
2022-08-25T13:39:13.497Z,27.70
2022-08-25T13:41:46.534Z,27.71
2022-08-25T13:44:19.540Z,27.72
2022-08-25T13:46:52.607Z,27.73
2022-08-25T13:49:25.542Z,27.75
2022-08-25T13:51:58.515Z,27.76
2022-08-25T13:54:31.619Z,27.77
2022-08-25T13:57:04.509Z,27.78
2022-08-25T13:59:40.236Z,27.80
2022-08-25T14:02:19.245Z,27.81
2022-08-25T14:04:51.482Z,27.82
2022-08-25T14:07:19.511Z,27.83
2022-08-25T14:09:49.604Z,27.84
2022-08-25T14:12:22.661Z,27.85
2022-08-25T14:14:55.627Z,27.86
2022-08-25T14:17:39.129Z,27.87
2022-08-25T14:20:01.482Z,27.88
2022-08-25T14:22:34.282Z,27.89
2022-08-25T14:25:07.323Z,27.90
2022-08-25T14:27:56.937Z,27.91
2022-08-25T14:30:13.329Z,27.92
2022-08-25T14:32:46.357Z,27.93
2022-08-25T14:35:19.318Z,27.94
2022-08-25T14:37:52.715Z,27.94
2022-08-25T14:40:25.433Z,27.95
2022-08-25T14:42:58.478Z,27.96
2022-08-25T14:45:31.619Z,27.98
2022-08-25T14:48:04.390Z,27.99
2022-08-25T14:50:37.331Z,27.99
2022-08-25T14:53:10.641Z,28.00
2022-08-25T14:55:43.567Z,28.01
2022-08-25T14:58:16.341Z,28.02
2022-08-25T15:00:49.595Z,28.02
2022-08-25T15:03:22.345Z,28.03
2022-08-25T15:05:55.763Z,28.04
2022-08-25T15:08:32.903Z,28.05
2022-08-25T15:11:01.459Z,28.05
2022-08-25T15:13:34.376Z,28.06
2022-08-25T15:16:07.389Z,28.07
2022-08-25T15:18:40.367Z,28.07
2022-08-25T15:21:13.523Z,28.08
2022-08-25T15:23:46.548Z,28.09
2022-08-25T15:26:19.392Z,28.09
2022-08-25T15:28:52.457Z,28.10
2022-08-25T15:31:25.447Z,28.12
2022-08-25T15:33:58.416Z,28.13
2022-08-25T15:36:31.463Z,28.14
2022-08-25T15:39:04.704Z,28.16
2022-08-25T15:41:37.683Z,28.17
2022-08-25T15:44:10.402Z,28.18
2022-08-25T15:46:47.032Z,28.19
2022-08-25T15:49:20.730Z,28.20
2022-08-25T15:51:49.693Z,28.21
2022-08-25T15:54:22.454Z,28.22
2022-08-25T15:56:55.546Z,28.22
2022-08-25T15:59:28.657Z,28.23
2022-08-25T16:02:01.512Z,28.24
2022-08-25T16:04:34.448Z,28.25
2022-08-25T16:07:07.609Z,28.26
2022-08-25T16:09:40.476Z,28.27
2022-08-25T16:12:13.519Z,28.28
2022-08-25T16:14:46.442Z,28.29
2022-08-25T16:17:19.489Z,28.30
2022-08-25T16:19:52.621Z,28.30
2022-08-25T16:22:39.424Z,28.31
2022-08-25T16:25:12.495Z,28.32
2022-08-25T16:27:45.840Z,28.33
2022-08-25T16:30:18.472Z,28.33
2022-08-25T16:32:51.633Z,28.34
2022-08-25T16:35:24.501Z,28.35
2022-08-25T16:37:57.518Z,28.36
2022-08-25T16:40:30.657Z,28.37
2022-08-25T16:43:03.498Z,28.38
2022-08-25T16:45:36.493Z,28.39
2022-08-25T16:48:09.541Z,28.40
2022-08-25T16:50:42.574Z,28.41
2022-08-25T16:53:15.590Z,28.42
2022-08-25T16:56:02.491Z,28.43
2022-08-25T16:58:35.507Z,28.45
2022-08-25T17:01:09.555Z,28.46
2022-08-25T17:03:44.098Z,28.47
2022-08-25T17:06:15.216Z,28.49
2022-08-25T17:08:47.564Z,28.50
2022-08-25T17:11:20.552Z,28.52
2022-08-25T17:13:53.868Z,28.53
2022-08-25T17:16:27.092Z,28.54
2022-08-25T17:19:00.918Z,28.56
2022-08-25T17:21:33.841Z,28.57
2022-08-25T17:24:06.853Z,28.58
2022-08-25T17:26:39.826Z,28.59
2022-08-25T17:29:12.777Z,28.60
2022-08-25T17:31:45.979Z,28.61
2022-08-25T17:34:23.270Z,28.61
2022-08-25T17:36:51.776Z,28.63
2022-08-25T17:39:24.573Z,28.63
2022-08-25T17:41:57.732Z,28.64
2022-08-25T17:44:30.716Z,28.65
2022-08-25T17:47:03.694Z,28.66
2022-08-25T17:49:36.584Z,28.66
2022-08-25T17:52:09.590Z,28.67
2022-08-25T17:54:42.598Z,28.68
2022-08-25T17:57:15.818Z,28.69
2022-08-25T17:59:48.784Z,28.70
2022-08-25T18:02:21.615Z,28.71
2022-08-25T18:04:54.653Z,28.72
2022-08-25T18:07:27.974Z,28.73
2022-08-25T18:10:00.726Z,28.74
2022-08-25T18:12:33.913Z,28.74
2022-08-25T18:15:06.933Z,28.75
2022-08-25T18:17:39.727Z,28.76
2022-08-25T18:20:12.666Z,28.76
2022-08-25T18:22:45.842Z,28.77
2022-08-25T18:25:21.540Z,28.78
2022-08-25T18:27:54.997Z,28.78
2022-08-25T18:30:27.664Z,28.78
2022-08-25T18:33:01.073Z,28.78
2022-08-25T18:35:33.910Z,28.79
2022-08-25T18:38:07.242Z,28.79
2022-08-25T18:40:39.654Z,28.79
2022-08-25T18:43:12.800Z,28.79
2022-08-25T18:45:45.942Z,28.78
2022-08-25T18:48:18.978Z,28.78
2022-08-25T18:50:52.028Z,28.78
2022-08-25T18:53:30.106Z,28.78
2022-08-25T18:55:58.028Z,28.78
2022-08-25T18:58:30.698Z,28.77
2022-08-25T19:01:03.798Z,28.77
2022-08-25T19:03:36.738Z,28.77
2022-08-25T19:06:09.744Z,28.77
2022-08-25T19:08:42.736Z,28.76
2022-08-25T19:11:16.053Z,28.75
2022-08-25T19:13:48.788Z,28.74
2022-08-25T19:16:22.073Z,28.74
2022-08-25T19:18:55.094Z,28.73
2022-08-25T19:21:27.870Z,28.73
2022-08-25T19:24:00.829Z,28.73
2022-08-25T19:26:33.887Z,28.72
2022-08-25T19:29:06.924Z,28.72
2022-08-25T19:31:40.082Z,28.72
2022-08-25T19:34:13.229Z,28.71
2022-08-25T19:36:46.905Z,28.71
2022-08-25T19:39:19.753Z,28.70
2022-08-25T19:41:53.033Z,28.69
2022-08-25T19:44:25.754Z,28.69
2022-08-25T19:47:13.270Z,28.68
2022-08-25T19:49:45.929Z,28.67
2022-08-25T19:52:18.753Z,28.67
2022-08-25T19:54:51.843Z,28.66
2022-08-25T19:57:27.907Z,28.66
2022-08-25T19:59:58.135Z,28.66
2022-08-25T20:02:30.908Z,28.66
2022-08-25T20:05:03.919Z,28.65
2022-08-25T20:07:36.924Z,28.65
2022-08-25T20:10:09.804Z,28.65
2022-08-25T20:12:42.988Z,28.65
2022-08-25T20:15:16.598Z,28.65
2022-08-25T20:17:48.934Z,28.65
2022-08-25T20:20:22.020Z,28.64
2022-08-25T20:22:54.936Z,28.64
2022-08-25T20:25:27.806Z,28.64
2022-08-25T20:28:00.806Z,28.64
2022-08-25T20:30:33.844Z,28.64
2022-08-25T20:33:07.155Z,28.64
2022-08-25T20:35:39.857Z,28.63
2022-08-25T20:38:12.876Z,28.61
2022-08-25T20:40:45.987Z,28.60
2022-08-25T20:43:19.115Z,28.58
2022-08-25T20:45:52.096Z,28.57
2022-08-25T20:48:24.971Z,28.55
2022-08-25T20:50:58.082Z,28.54
2022-08-25T20:53:33.955Z,28.53
2022-08-25T20:56:07.250Z,28.52
2022-08-25T20:58:40.677Z,28.51
2022-08-25T21:01:12.959Z,28.50
2022-08-25T21:03:46.253Z,28.49
2022-08-25T21:06:18.877Z,28.48
2022-08-25T21:08:52.014Z,28.47
2022-08-25T21:11:28.178Z,28.47
2022-08-25T21:14:01.016Z,28.45
2022-08-25T21:16:34.219Z,28.45
2022-08-25T21:19:08.879Z,28.44
2022-08-25T21:21:41.202Z,28.43
2022-08-25T21:24:14.273Z,28.42
2022-08-25T21:26:48.576Z,28.41
2022-08-25T21:29:20.196Z,28.40
2022-08-25T21:31:52.922Z,28.40
2022-08-25T21:34:26.344Z,28.39
2022-08-25T21:37:00.415Z,28.38
2022-08-25T21:39:33.257Z,28.37
2022-08-25T21:42:05.968Z,28.36
2022-08-25T21:44:39.085Z,28.36
2022-08-25T21:47:12.214Z,28.35
2022-08-25T21:49:44.923Z,28.34
2022-08-25T21:52:18.252Z,28.34
2022-08-25T21:54:51.231Z,28.33
2022-08-25T21:57:24.261Z,28.32
2022-08-25T21:59:58.111Z,28.31
2022-08-25T22:02:31.286Z,28.30
2022-08-25T22:05:04.308Z,28.29
2022-08-25T22:07:40.402Z,28.28
2022-08-25T22:10:16.442Z,28.27
2022-08-25T22:12:43.316Z,28.26
2022-08-25T22:15:16.346Z,28.26
2022-08-25T22:17:49.313Z,28.25
2022-08-25T22:20:22.278Z,28.24
2022-08-25T22:22:56.341Z,28.23
2022-08-25T22:25:29.280Z,28.22
2022-08-25T22:28:02.331Z,28.21
2022-08-25T22:30:35.082Z,28.20
2022-08-25T22:33:09.056Z,28.19
2022-08-25T22:35:41.358Z,28.18
2022-08-25T22:38:14.325Z,28.18
2022-08-25T22:40:47.356Z,28.17
2022-08-25T22:43:20.267Z,28.16
2022-08-25T22:45:53.473Z,28.15
2022-08-25T22:48:26.372Z,28.14
2022-08-25T22:50:59.339Z,28.13
2022-08-25T22:53:32.198Z,28.12
2022-08-25T22:56:05.282Z,28.11
2022-08-25T22:58:38.366Z,28.11
2022-08-25T23:01:11.336Z,28.10
2022-08-25T23:03:44.668Z,28.09
2022-08-25T23:06:22.125Z,28.09
2022-08-25T23:08:50.380Z,28.08
2022-08-25T23:11:23.392Z,28.07
2022-08-25T23:13:56.392Z,28.06
2022-08-25T23:16:29.440Z,28.06
2022-08-25T23:19:02.364Z,28.06
2022-08-25T23:21:40.785Z,28.05
2022-08-25T23:24:08.327Z,28.05
2022-08-25T23:26:42.403Z,28.04
2022-08-25T23:29:17.790Z,28.03
2022-08-25T23:31:47.686Z,28.03
2022-08-25T23:34:20.344Z,28.03
2022-08-25T23:36:53.419Z,28.02
2022-08-25T23:39:26.419Z,28.01
2022-08-25T23:41:59.363Z,28.01
2022-08-25T23:44:32.428Z,28.00
2022-08-25T23:47:05.461Z,27.99
2022-08-25T23:49:38.407Z,27.99
2022-08-25T23:52:11.442Z,27.98
2022-08-25T23:54:44.465Z,27.98
2022-08-25T23:57:17.429Z,27.97
2022-08-25T23:59:50.496Z,27.97
